Time;durP1;ratioP1;P1;durP2;ratioP2;P2;SDS_P1;SDS_P2;PMS_P1;PMS_P2;Temp;Humidity;BMP_temperature;BMP_pressure;BME280_temperature;BME280_humidity;BME280_pressure;Samples;Min_cycle;Max_cycle;Signal;HPM_P1;HPM_P2
2023/07/31 00:02:23;;;;;;;3.22;1.67;;;;;;;16.48;62.34;95679.25;5031531;28;20209;-82
2023/07/31 00:04:48;;;;;;;2.05;1.85;;;;;;;16.39;62.68;95681.13;5026454;28;20255;-82
2023/07/31 00:07:14;;;;;;;4.32;2.40;;;;;;;16.17;63.55;95682.84;5008091;28;20206;-82
2023/07/31 00:09:39;;;;;;;3.85;1.98;;;;;;;16.19;63.69;95674.81;5006298;28;20195;-84
2023/07/31 00:12:05;;;;;;;5.80;1.88;;;;;;;16.27;63.16;95669.47;5019048;28;20202;-83
2023/07/31 00:14:30;;;;;;;3.60;1.92;;;;;;;16.24;63.63;95675.06;5016718;28;20183;-82
2023/07/31 00:16:55;;;;;;;6.10;1.83;;;;;;;16.01;64.14;95683.81;5013847;28;20232;-84
2023/07/31 00:19:21;;;;;;;5.28;2.00;;;;;;;16.11;63.87;95679.13;5028065;28;20274;-83
2023/07/31 00:21:46;;;;;;;4.00;1.83;;;;;;;16.13;63.67;95687.63;5011118;28;20274;-82
2023/07/31 00:24:11;;;;;;;3.90;1.85;;;;;;;16.06;63.83;95676.22;5011136;28;20307;-81
2023/07/31 00:26:37;;;;;;;5.10;1.60;;;;;;;16.15;63.70;95682.19;5016059;28;20293;-82
2023/07/31 00:29:02;;;;;;;5.20;1.92;;;;;;;16.08;64.02;95687.34;5019360;28;20195;-81
2023/07/31 00:31:28;;;;;;;3.33;1.70;;;;;;;16.05;64.18;95685.06;5022381;28;20198;-84
2023/07/31 00:33:53;;;;;;;4.60;2.00;;;;;;;16.04;64.28;95686.06;5024988;28;20244;-82
2023/07/31 00:36:18;;;;;;;3.47;1.98;;;;;;;16.06;64.35;95675.41;5026778;28;20210;-83
2023/07/31 00:38:44;;;;;;;6.18;2.35;;;;;;;16.11;63.76;95675.69;5029595;28;20269;-82
2023/07/31 00:41:09;;;;;;;4.88;2.13;;;;;;;16.08;64.07;95676.06;5027583;28;20179;-82
2023/07/31 00:43:34;;;;;;;4.57;1.65;;;;;;;16.13;64.20;95677.13;5025256;28;20225;-82
2023/07/31 00:46:00;;;;;;;3.80;1.95;;;;;;;16.10;64.23;95677.50;5021747;28;20215;-83
2023/07/31 00:48:25;;;;;;;2.90;1.80;;;;;;;16.11;64.34;95673.88;5020999;28;20655;-83
2023/07/31 00:50:51;;;;;;;4.70;1.75;;;;;;;16.03;65.42;95676.56;5004658;28;20590;-82
2023/07/31 00:53:16;;;;;;;4.57;2.10;;;;;;;15.81;65.45;95680.03;5018138;28;20654;-83
2023/07/31 00:55:42;;;;;;;6.30;2.22;;;;;;;15.94;65.32;95675.03;5031200;28;20202;-83
2023/07/31 00:58:07;;;;;;;6.07;2.17;;;;;;;15.87;65.99;95676.72;5014648;28;20183;-82
2023/07/31 01:00:33;;;;;;;5.57;2.00;;;;;;;15.96;65.64;95667.81;5017745;28;20191;-81
2023/07/31 01:02:58;;;;;;;3.40;1.85;;;;;;;15.99;65.95;95661.38;5003484;28;20613;-82
2023/07/31 01:05:33;;;;;;;2.85;1.90;;;;;;;15.89;66.13;95661.63;5021297;28;20293;-83
2023/07/31 01:08:08;;;;;;;4.47;2.03;;;;;;;15.81;66.66;95659.09;5019448;28;20691;-81
2023/07/31 01:10:41;;;;;;;4.57;2.00;;;;;;;15.82;66.49;95655.50;5019131;28;20252;-83
2023/07/31 01:13:07;;;;;;;4.45;2.20;;;;;;;15.82;65.92;95647.66;4998158;28;20238;-83
2023/07/31 01:15:32;;;;;;;5.63;1.95;;;;;;;15.76;66.23;95653.59;5013105;28;20215;-82
2023/07/31 01:17:57;;;;;;;5.05;2.00;;;;;;;15.71;66.49;95655.91;4999426;28;20194;-82
2023/07/31 01:20:24;;;;;;;9.80;2.13;;;;;;;15.72;65.83;95652.28;5002353;28;20182;-82
2023/07/31 01:23:09;;;;;;;4.32;2.35;;;;;;;15.64;65.56;95652.38;5020177;28;20195;-82
2023/07/31 01:26:00;;;;;;;7.55;2.10;;;;;;;15.73;65.16;95652.16;5036322;28;20271;-82
2023/07/31 01:28:47;;;;;;;5.18;2.35;;;;;;;15.65;65.16;95648.78;5035516;28;20193;-82
2023/07/31 01:31:16;;;;;;;5.25;1.83;;;;;;;15.77;64.59;95647.34;5015963;28;20243;-82
2023/07/31 01:33:42;;;;;;;5.47;1.85;;;;;;;15.74;65.30;95639.88;5030347;28;20183;-81
2023/07/31 01:36:07;;;;;;;3.83;1.77;;;;;;;15.66;66.06;95645.97;5014958;28;20211;-82
2023/07/31 01:38:33;;;;;;;5.03;1.85;;;;;;;15.66;66.45;95638.13;5017989;28;20231;-83
2023/07/31 01:40:58;;;;;;;2.50;1.88;;;;;;;15.55;66.90;95630.66;5020217;28;20643;-82
2023/07/31 01:43:24;;;;;;;5.30;2.20;;;;;;;15.55;66.80;95633.28;5023053;28;20183;-82
2023/07/31 01:45:49;;;;;;;3.45;1.90;;;;;;;15.48;67.05;95632.34;5025303;28;20252;-83
2023/07/31 01:48:14;;;;;;;3.67;2.05;;;;;;;15.39;67.36;95631.59;5028334;28;20759;-82
2023/07/31 01:50:40;;;;;;;5.80;1.92;;;;;;;15.38;67.04;95623.94;5030622;28;20189;-82
2023/07/31 01:53:05;;;;;;;3.63;2.08;;;;;;;15.41;66.85;95629.63;5031567;28;20690;-83
2023/07/31 01:55:30;;;;;;;3.10;1.80;;;;;;;15.42;67.39;95630.44;5013369;28;20214;-83
2023/07/31 01:57:56;;;;;;;3.10;1.95;;;;;;;15.42;67.58;95622.59;5019579;28;20183;-82
2023/07/31 02:00:21;;;;;;;3.95;2.05;;;;;;;15.38;67.39;95619.50;5021681;28;20186;-82
2023/07/31 02:02:46;;;;;;;3.55;2.42;;;;;;;15.38;67.67;95614.28;5024489;28;20194;-83
2023/07/31 02:05:11;;;;;;;6.25;2.40;;;;;;;15.32;68.18;95617.59;5026558;28;20210;-84
2023/07/31 02:07:37;;;;;;;4.00;1.90;;;;;;;15.30;68.04;95609.09;5013193;28;20195;-82
2023/07/31 02:10:02;;;;;;;4.20;2.30;;;;;;;15.31;67.70;95613.34;5031960;28;20229;-82
2023/07/31 02:12:30;;;;;;;6.93;1.77;;;;;;;15.41;66.98;95616.53;5028616;28;20555;-82
2023/07/31 02:14:55;;;;;;;3.33;2.20;;;;;;;15.29;67.39;95610.09;5042079;28;20639;-82
2023/07/31 02:17:21;;;;;;;4.82;2.05;;;;;;;15.34;67.07;95597.28;5025302;28;20282;-83
2023/07/31 02:19:46;;;;;;;3.85;2.30;;;;;;;15.37;67.07;95590.88;5022901;28;20183;-82
2023/07/31 02:22:11;;;;;;;3.97;2.00;;;;;;;15.29;67.47;95589.97;5019209;28;20592;-84
2023/07/31 02:24:37;;;;;;;3.97;1.92;;;;;;;15.19;67.99;95586.75;5000328;28;20221;-82
2023/07/31 02:27:02;;;;;;;4.25;2.40;;;;;;;15.11;68.32;95581.63;5014895;28;20770;-83
2023/07/31 02:29:28;;;;;;;3.28;1.90;;;;;;;15.17;68.50;95583.50;5013729;28;20683;-83
2023/07/31 02:31:53;;;;;;;5.40;2.22;;;;;;;15.14;68.27;95583.06;5016436;28;20201;-83
2023/07/31 02:34:18;;;;;;;3.20;2.13;;;;;;;15.09;68.90;95585.38;5015509;28;20194;-82
2023/07/31 02:36:43;;;;;;;5.00;2.35;;;;;;;15.00;69.54;95577.59;5037084;28;20207;-82
2023/07/31 02:39:09;;;;;;;3.00;1.80;;;;;;;14.96;70.03;95584.16;5023299;28;20271;-83
2023/07/31 02:41:34;;;;;;;5.60;2.15;;;;;;;14.87;70.32;95574.75;5043200;28;20711;-81
2023/07/31 02:43:59;;;;;;;3.10;2.00;;;;;;;14.84;70.78;95574.25;5028547;28;20746;-83
2023/07/31 02:46:25;;;;;;;5.70;2.15;;;;;;;14.70;71.32;95573.22;5014134;28;20223;-82
2023/07/31 02:48:51;;;;;;;3.20;2.27;;;;;;;14.76;71.15;95580.38;5013831;28;20193;-83
2023/07/31 02:51:16;;;;;;;4.13;2.40;;;;;;;14.63;71.48;95578.31;5026242;28;20275;-83
2023/07/31 02:53:41;;;;;;;6.60;2.07;;;;;;;14.72;71.28;95585.13;5025056;28;20270;-82
2023/07/31 02:56:07;;;;;;;6.25;1.95;;;;;;;14.65;72.19;95583.34;5021743;28;20205;-82
2023/07/31 02:58:32;;;;;;;5.73;2.30;;;;;;;14.72;71.72;95579.88;5020401;28;20191;-82
2023/07/31 03:00:58;;;;;;;5.00;2.13;;;;;;;14.69;71.93;95568.97;5033261;28;20218;-82
2023/07/31 03:03:24;;;;;;;3.23;2.10;;;;;;;14.70;71.96;95575.81;5024778;28;20195;-82
2023/07/31 03:05:49;;;;;;;6.57;2.23;;;;;;;14.67;71.95;95578.78;5014227;28;20222;-82
2023/07/31 03:08:14;;;;;;;5.93;2.23;;;;;;;14.72;71.92;95584.31;5029056;28;20186;-82
2023/07/31 03:10:40;;;;;;;2.57;2.10;;;;;;;14.71;72.00;95569.63;5025752;28;20321;-83
2023/07/31 03:13:05;;;;;;;4.90;2.10;;;;;;;14.72;72.36;95584.31;5040306;28;20193;-83
2023/07/31 03:15:31;;;;;;;6.43;2.75;;;;;;;14.61;72.90;95585.50;5020350;28;20732;-82
2023/07/31 03:17:56;;;;;;;3.72;2.30;;;;;;;14.71;72.36;95585.28;5018354;28;20675;-84
2023/07/31 03:20:21;;;;;;;2.42;1.80;;;;;;;14.56;73.10;95587.00;5015289;28;20570;-82
2023/07/31 03:22:47;;;;;;;6.77;2.70;;;;;;;14.58;72.92;95577.22;5011866;28;20191;-83
2023/07/31 03:25:12;;;;;;;3.07;2.00;;;;;;;14.48;73.40;95585.22;5012094;28;20215;-82
2023/07/31 03:27:37;;;;;;;6.47;2.37;;;;;;;14.52;73.03;95585.72;4998751;28;20195;-82
2023/07/31 03:30:03;;;;;;;7.30;2.40;;;;;;;14.64;73.19;95584.34;5018996;28;20552;-83
2023/07/31 03:32:28;;;;;;;6.00;1.93;;;;;;;14.67;72.75;95584.03;5020504;28;20195;-82
2023/07/31 03:34:54;;;;;;;5.50;2.10;;;;;;;14.62;72.99;95586.31;5021827;28;20214;-82
2023/07/31 03:37:19;;;;;;;3.83;2.08;;;;;;;14.64;73.30;95584.34;5025268;28;20213;-82
2023/07/31 03:39:45;;;;;;;5.87;2.20;;;;;;;14.63;73.40;95577.50;5028414;28;20233;-82
2023/07/31 03:42:10;;;;;;;6.78;2.42;;;;;;;14.67;73.66;95582.22;5030300;28;20548;-82
2023/07/31 03:44:35;;;;;;;5.50;2.37;;;;;;;14.61;73.84;95574.25;5027725;28;20673;-82
2023/07/31 03:47:01;;;;;;;5.13;2.30;;;;;;;14.63;73.62;95567.03;5025516;28;20225;-82
2023/07/31 03:49:26;;;;;;;4.80;2.50;;;;;;;14.65;73.51;95570.28;5022578;28;20194;-83
2023/07/31 03:51:51;;;;;;;4.00;2.20;;;;;;;14.69;73.71;95579.44;5020119;28;20646;-83
2023/07/31 03:54:16;;;;;;;5.80;1.97;;;;;;;14.74;73.31;95570.06;5017771;28;20282;-83
2023/07/31 03:56:42;;;;;;;3.13;2.30;;;;;;;14.72;73.37;95572.03;5014523;28;20207;-82
2023/07/31 03:59:07;;;;;;;5.73;2.03;;;;;;;14.73;73.46;95567.63;5012290;28;20247;-83
2023/07/31 04:01:32;;;;;;;4.37;2.37;;;;;;;14.73;73.50;95568.44;5011955;28;20274;-83
2023/07/31 04:03:58;;;;;;;5.10;2.40;;;;;;;14.71;73.82;95570.41;5014048;28;20616;-83
2023/07/31 04:06:23;;;;;;;5.53;2.33;;;;;;;14.84;73.50;95569.03;5016173;28;20775;-82
2023/07/31 04:08:48;;;;;;;3.70;2.20;;;;;;;14.82;73.17;95571.81;5003491;28;20274;-82
2023/07/31 04:11:14;;;;;;;4.05;2.42;;;;;;;14.90;73.16;95561.31;5011672;28;20199;-81
2023/07/31 04:13:39;;;;;;;2.10;1.90;;;;;;;14.99;72.78;95570.72;5039408;28;20194;-82
2023/07/31 04:16:04;;;;;;;6.13;2.30;;;;;;;15.06;71.80;95567.44;5049884;28;20206;-82
2023/07/31 04:18:31;;;;;;;3.33;2.40;;;;;;;15.05;72.34;95565.81;5054509;28;20170;-82
2023/07/31 04:20:58;;;;;;;3.28;2.00;;;;;;;15.14;71.50;95570.78;5048372;28;20186;-83
2023/07/31 04:23:23;;;;;;;3.90;2.17;;;;;;;15.12;71.86;95566.75;5038088;28;20671;-84
2023/07/31 04:25:48;;;;;;;4.30;2.07;;;;;;;15.22;71.53;95569.94;5036943;28;20218;-82
2023/07/31 04:28:14;;;;;;;8.27;3.78;;;;;;;15.21;71.58;95574.34;5032826;28;20627;-83
2023/07/31 04:30:39;;;;;;;3.78;1.90;;;;;;;15.18;71.54;95581.72;5030276;28;20225;-84
2023/07/31 04:33:04;;;;;;;5.32;2.53;;;;;;;15.19;71.81;95570.25;5028061;28;20202;-84
2023/07/31 04:35:30;;;;;;;5.25;2.40;;;;;;;15.25;71.42;95569.56;5023808;28;20578;-84
2023/07/31 04:37:55;;;;;;;3.60;2.10;;;;;;;15.28;70.48;95566.59;5022571;28;20423;-84
2023/07/31 04:40:21;;;;;;;3.50;2.30;;;;;;;15.27;70.40;95571.00;5024700;28;20189;-83
2023/07/31 04:42:46;;;;;;;4.50;2.42;;;;;;;15.04;71.62;95559.75;5027099;28;20214;-83
2023/07/31 04:45:12;;;;;;;6.15;2.70;;;;;;;15.02;71.57;95566.97;5013213;28;20647;-84
2023/07/31 04:47:37;;;;;;;4.25;2.50;;;;;;;15.18;71.15;95564.22;5046261;28;20190;-83
2023/07/31 04:50:02;;;;;;;5.72;2.50;;;;;;;15.34;70.60;95562.47;5028325;28;20202;-84
2023/07/31 04:52:28;;;;;;;5.03;2.10;;;;;;;15.51;69.05;95562.16;5036893;28;20190;-84
2023/07/31 04:54:53;;;;;;;4.15;2.20;;;;;;;15.57;69.14;95550.97;5039278;28;20301;-84
2023/07/31 04:57:18;;;;;;;5.20;2.42;;;;;;;15.52;69.00;95558.53;5038745;28;20185;-83
2023/07/31 04:59:44;;;;;;;6.35;2.58;;;;;;;15.71;68.46;95559.84;5035989;28;20578;-83
2023/07/31 05:02:11;;;;;;;4.47;2.50;;;;;;;15.91;67.40;95554.13;5032779;28;20195;-84
2023/07/31 05:04:37;;;;;;;3.90;2.13;;;;;;;16.02;66.80;95554.47;5029056;28;20274;-83
2023/07/31 05:07:02;;;;;;;3.72;2.47;;;;;;;16.02;66.59;95553.66;5026844;28;20249;-84
2023/07/31 05:09:27;;;;;;;4.88;2.00;;;;;;;16.18;65.89;95547.44;5026374;28;20198;-84
2023/07/31 05:11:53;;;;;;;4.50;2.42;;;;;;;16.24;65.66;95550.09;5022074;28;20560;-83
2023/07/31 05:14:18;;;;;;;2.78;1.70;;;;;;;16.80;63.45;95546.97;5037333;28;20210;-83
2023/07/31 05:16:43;;;;;;;3.78;2.20;;;;;;;16.70;63.25;95545.47;5005968;28;20203;-84
2023/07/31 05:19:09;;;;;;;4.95;2.22;;;;;;;16.49;63.86;95549.81;5025393;28;20194;-83
2023/07/31 05:21:34;;;;;;;4.10;2.55;;;;;;;16.45;64.45;95561.66;5028142;28;20186;-84
2023/07/31 05:23:59;;;;;;;3.22;2.30;;;;;;;16.37;64.93;95552.91;5030650;28;20179;-83
2023/07/31 05:26:25;;;;;;;5.20;2.33;;;;;;;16.60;64.33;95552.75;5031277;28;20217;-84
2023/07/31 05:28:50;;;;;;;4.50;2.65;;;;;;;16.63;64.26;95556.84;5035897;28;20186;-83
2023/07/31 05:31:15;;;;;;;9.93;2.72;;;;;;;16.86;63.11;95556.69;5037392;28;20224;-83
2023/07/31 05:33:41;;;;;;;3.92;2.13;;;;;;;16.76;63.40;95556.19;5036551;28;20278;-84
2023/07/31 05:36:06;;;;;;;4.18;2.28;;;;;;;16.96;62.95;95559.81;5017130;28;20772;-81
2023/07/31 05:38:31;;;;;;;7.95;2.40;;;;;;;17.73;60.58;95561.72;5032014;28;20229;-81
2023/07/31 05:40:57;;;;;;;6.28;2.22;;;;;;;19.16;55.17;95563.59;5029034;28;20190;-84
2023/07/31 05:43:22;;;;;;;5.60;2.28;;;;;;;19.31;55.21;95560.78;5025981;28;20193;-84
2023/07/31 05:45:47;;;;;;;5.45;2.45;;;;;;;19.18;55.54;95559.75;5039144;28;20210;-82
2023/07/31 05:48:12;;;;;;;4.45;2.15;;;;;;;19.70;53.89;95560.84;5021122;28;20191;-84
2023/07/31 05:50:41;;;;;;;6.57;2.40;;;;;;;20.20;52.09;95558.50;5018652;28;20190;-84
2023/07/31 05:53:07;;;;;;;4.82;1.77;;;;;;;20.09;52.07;95559.16;5020739;28;20256;-83
2023/07/31 05:55:33;;;;;;;6.20;2.50;;;;;;;19.43;53.40;95557.34;5021612;28;20260;-84
2023/07/31 05:57:58;;;;;;;3.78;2.05;;;;;;;18.94;54.38;95550.59;5024698;28;20249;-84
2023/07/31 06:00:24;;;;;;;4.13;2.00;;;;;;;19.05;55.15;95551.84;5028318;28;20285;-82
2023/07/31 06:02:49;;;;;;;5.45;2.25;;;;;;;19.16;54.71;95551.22;5030598;28;20183;-84
2023/07/31 06:05:14;;;;;;;5.75;2.20;;;;;;;19.24;54.28;95552.88;5016210;28;20214;-84
2023/07/31 06:07:39;;;;;;;4.82;2.30;;;;;;;19.38;54.41;95553.69;5035622;28;20260;-84
2023/07/31 06:10:05;;;;;;;5.22;2.20;;;;;;;19.41;53.99;95548.81;5035583;28;20560;-83
2023/07/31 06:12:31;;;;;;;3.47;2.35;;;;;;;19.44;54.46;95545.81;5033319;28;20194;-84
2023/07/31 06:14:57;;;;;;;5.53;2.97;;;;;;;19.08;55.67;95551.44;5012793;28;20218;-81
2023/07/31 06:17:22;;;;;;;6.80;2.28;;;;;;;19.13;55.84;95551.66;5026326;28;20176;-81
2023/07/31 06:19:48;;;;;;;4.47;2.30;;;;;;;18.87;56.13;95552.41;5007102;28;20194;-81
2023/07/31 06:22:13;;;;;;;6.93;2.47;;;;;;;18.40;57.90;95546.16;5040689;28;20238;-81
2023/07/31 06:24:38;;;;;;;4.97;2.25;;;;;;;18.27;59.52;95542.66;5031140;28;20186;-81
2023/07/31 06:27:05;;;;;;;4.35;2.63;;;;;;;18.77;57.46;95544.09;5033869;28;20586;-81
2023/07/31 06:29:30;;;;;;;4.50;2.30;;;;;;;19.38;55.52;95536.06;5033149;28;20224;-82
2023/07/31 06:31:55;;;;;;;3.72;2.00;;;;;;;19.61;54.86;95532.25;5030878;28;20190;-81
2023/07/31 06:34:21;;;;;;;3.33;2.03;;;;;;;19.60;54.88;95541.97;5025586;28;20194;-81
2023/07/31 06:36:46;;;;;;;3.38;2.10;;;;;;;19.29;55.73;95550.44;5024429;28;20199;-81
2023/07/31 06:39:11;;;;;;;4.38;2.50;;;;;;;18.52;57.43;95545.59;5005087;28;20186;-82
2023/07/31 06:41:38;;;;;;;4.78;2.50;;;;;;;18.28;58.85;95544.25;5002507;28;20186;-81
2023/07/31 06:44:03;;;;;;;4.13;2.00;;;;;;;18.37;59.42;95558.88;5033256;28;20190;-81
2023/07/31 06:46:28;;;;;;;5.85;2.20;;;;;;;18.35;59.16;95558.25;5014061;28;20572;-80
2023/07/31 06:48:54;;;;;;;5.53;2.38;;;;;;;18.52;58.58;95558.72;5002121;28;20186;-82
2023/07/31 06:51:20;;;;;;;5.32;2.10;;;;;;;18.53;59.06;95566.41;5037882;28;20175;-82
2023/07/31 06:53:45;;;;;;;4.53;2.20;;;;;;;18.46;59.89;95559.50;5025140;28;20240;-81
2023/07/31 06:56:10;;;;;;;5.10;2.10;;;;;;;18.82;58.68;95554.84;5022122;28;20207;-81
2023/07/31 06:58:36;;;;;;;3.20;2.25;;;;;;;19.04;58.13;95560.75;5017641;28;20201;-81
2023/07/31 07:01:01;;;;;;;7.00;2.45;;;;;;;19.07;57.72;95554.25;5017911;28;20530;-82
2023/07/31 07:03:27;;;;;;;3.53;2.20;;;;;;;18.94;57.81;95552.44;4996702;28;20214;-79
2023/07/31 07:05:52;;;;;;;5.60;2.42;;;;;;;19.28;56.21;95543.56;5013419;28;20213;-79
2023/07/31 07:08:18;;;;;;;5.18;2.30;;;;;;;19.38;57.95;95546.59;5015181;28;20195;-78
2023/07/31 07:10:43;;;;;;;3.92;1.88;;;;;;;19.31;57.06;95550.25;5034342;28;20186;-78
2023/07/31 07:13:09;;;;;;;4.53;2.33;;;;;;;19.65;56.48;95544.81;5021261;28;20182;-79
2023/07/31 07:15:34;;;;;;;2.88;2.25;;;;;;;19.66;55.59;95550.88;5029713;28;20275;-78
2023/07/31 07:18:00;;;;;;;6.10;2.45;;;;;;;19.49;56.30;95545.19;5031717;28;20179;-79
2023/07/31 07:20:27;;;;;;;7.97;2.83;;;;;;;19.53;56.18;95534.06;4996491;28;20191;-79
2023/07/31 07:22:53;;;;;;;4.25;1.98;;;;;;;19.00;58.06;95545.56;5027929;28;20194;-78
2023/07/31 07:25:18;;;;;;;3.45;2.67;;;;;;;19.25;57.53;95536.06;5012671;28;20207;-80
2023/07/31 07:27:43;;;;;;;6.00;2.38;;;;;;;18.86;58.00;95535.00;5032443;28;20182;-79
2023/07/31 07:30:09;;;;;;;7.93;2.50;;;;;;;19.29;57.27;95529.38;5034618;28;20261;-79
2023/07/31 07:32:34;;;;;;;3.60;2.17;;;;;;;19.60;55.54;95536.69;5021147;28;20190;-79
2023/07/31 07:35:00;;;;;;;4.75;2.58;;;;;;;21.00;52.23;95540.53;5023415;28;20317;-79
2023/07/31 07:37:25;;;;;;;5.88;2.53;;;;;;;20.92;51.61;95535.50;5014942;28;20198;-79
2023/07/31 07:39:50;;;;;;;4.57;2.58;;;;;;;20.59;52.53;95539.13;4999285;28;20183;-79
2023/07/31 07:42:16;;;;;;;5.82;2.25;;;;;;;20.63;52.92;95532.41;5011875;28;20280;-80
2023/07/31 07:44:41;;;;;;;4.80;2.25;;;;;;;20.17;53.91;95534.38;5015430;28;20216;-82
2023/07/31 07:47:06;;;;;;;7.30;2.15;;;;;;;20.31;54.21;95541.22;5023379;28;20566;-83
2023/07/31 07:49:34;;;;;;;3.55;2.47;;;;;;;19.92;54.32;95537.69;5024137;28;20187;-82
2023/07/31 07:51:59;;;;;;;2.75;2.10;;;;;;;20.26;53.86;95539.22;5007847;28;20662;-78
2023/07/31 07:54:24;;;;;;;6.22;2.58;;;;;;;20.20;54.20;95536.59;5024879;28;20329;-87
2023/07/31 07:56:50;;;;;;;6.32;2.88;;;;;;;20.23;54.42;95528.25;5010624;28;20174;-84
2023/07/31 07:59:15;;;;;;;5.00;2.35;;;;;;;20.19;54.90;95534.97;5022832;28;20322;-85
2023/07/31 08:01:40;;;;;;;5.00;2.50;;;;;;;20.24;54.22;95536.00;5013594;28;20207;-84
2023/07/31 08:04:06;;;;;;;4.90;2.45;;;;;;;19.75;55.83;95541.75;5022484;28;20202;-85
2023/07/31 08:06:31;;;;;;;4.43;2.58;;;;;;;20.13;55.00;95533.16;5017630;28;20713;-84
2023/07/31 08:08:56;;;;;;;4.28;2.25;;;;;;;19.77;55.10;95526.56;5020287;28;20214;-84
2023/07/31 08:11:23;;;;;;;5.00;2.20;;;;;;;20.26;54.09;95530.50;5005275;28;20256;-86
2023/07/31 08:13:49;;;;;;;4.07;2.50;;;;;;;20.33;54.77;95534.75;5014535;28;20180;-85
2023/07/31 08:16:14;;;;;;;3.05;2.47;;;;;;;20.29;54.26;95527.44;5013628;28;20679;-85
2023/07/31 08:18:40;;;;;;;4.68;2.50;;;;;;;20.20;53.85;95533.97;4996056;28;20234;-85
2023/07/31 08:21:05;;;;;;;6.18;2.42;;;;;;;20.22;54.86;95527.47;5021080;28;20183;-86
2023/07/31 08:23:31;;;;;;;5.97;2.60;;;;;;;20.03;55.05;95526.50;5020814;28;20554;-82
2023/07/31 08:25:56;;;;;;;5.32;2.47;;;;;;;20.35;54.69;95527.44;5001693;28;20221;-86
2023/07/31 08:28:21;;;;;;;6.30;2.70;;;;;;;20.99;52.95;95524.91;5023442;28;20544;-84
2023/07/31 08:30:47;;;;;;;3.90;2.40;;;;;;;21.69;51.49;95530.91;5014909;28;20600;-81
2023/07/31 08:33:12;;;;;;;5.80;2.50;;;;;;;22.06;48.78;95529.94;5009424;28;20193;-84
2023/07/31 08:35:37;;;;;;;5.47;2.50;;;;;;;22.42;48.61;95522.25;5023280;28;20619;-85
2023/07/31 08:38:03;;;;;;;6.40;2.45;;;;;;;22.07;46.91;95517.53;5002793;28;20191;-85
2023/07/31 08:40:28;;;;;;;5.47;2.45;;;;;;;21.66;47.07;95515.50;5008916;28;20179;-85
2023/07/31 08:42:56;;;;;;;5.15;2.45;;;;;;;21.77;47.28;95515.59;5022024;28;20260;-85
2023/07/31 08:45:22;;;;;;;6.80;2.72;;;;;;;21.97;47.47;95517.22;5010406;28;20659;-85
2023/07/31 08:47:49;;;;;;;4.13;2.72;;;;;;;22.51;46.91;95510.31;4999013;28;20184;-85
2023/07/31 08:50:16;;;;;;;4.95;2.90;;;;;;;22.19;45.67;95520.28;4996357;28;20183;-85
2023/07/31 08:52:42;;;;;;;3.65;2.33;;;;;;;22.26;45.78;95503.31;5028629;28;20561;-85
2023/07/31 08:55:08;;;;;;;7.75;2.85;;;;;;;22.62;46.44;95504.31;5014541;28;20293;-85
2023/07/31 08:57:35;;;;;;;6.28;2.85;;;;;;;22.69;45.29;95494.41;4998794;28;20324;-85
2023/07/31 09:00:02;;;;;;;7.22;2.97;;;;;;;22.85;44.52;95496.47;5014868;28;20171;-84
2023/07/31 09:02:39;;;;;;;6.80;2.85;;;;;;;22.92;43.27;95493.72;5031206;28;20554;-85
2023/07/31 09:05:06;;;;;;;5.70;2.70;;;;;;;22.73;44.07;95485.00;5014396;28;20209;-84
2023/07/31 09:07:31;;;;;;;6.47;3.15;;;;;;;22.60;44.59;95495.75;4998401;28;20672;-85
2023/07/31 09:09:57;;;;;;;6.13;2.85;;;;;;;22.67;43.58;95499.13;5033221;28;20197;-85
2023/07/31 09:12:22;;;;;;;6.03;2.88;;;;;;;22.65;45.09;95503.03;5034740;28;20657;-86
2023/07/31 09:14:48;;;;;;;6.30;3.08;;;;;;;22.79;45.26;95489.41;5017493;28;20208;-85
2023/07/31 09:17:13;;;;;;;4.35;2.55;;;;;;;22.95;45.51;95492.47;5036032;28;20603;-85
2023/07/31 09:19:38;;;;;;;5.13;2.75;;;;;;;22.81;45.48;95492.63;5017082;28;20176;-86
2023/07/31 09:22:05;;;;;;;9.25;3.10;;;;;;;22.53;45.25;95495.06;5022582;28;20340;-84
2023/07/31 09:24:32;;;;;;;7.13;2.80;;;;;;;22.60;45.49;95493.91;5009687;28;20209;-86
2023/07/31 09:26:59;;;;;;;5.30;2.85;;;;;;;22.28;45.41;95488.03;5011299;28;20202;-85
2023/07/31 09:29:26;;;;;;;5.68;3.00;;;;;;;22.26;45.28;95482.16;5010139;28;20581;-85
2023/07/31 09:31:52;;;;;;;4.57;2.75;;;;;;;22.32;45.91;95475.16;5000896;28;20608;-84
2023/07/31 09:34:17;;;;;;;5.25;2.78;;;;;;;22.36;46.13;95476.34;5024956;28;20213;-89
2023/07/31 09:36:48;;;;;;;6.22;2.50;;;;;;;23.13;44.48;95457.97;5035824;28;20183;-86
2023/07/31 09:39:16;;;;;;;5.97;2.83;;;;;;;23.52;44.15;95467.13;5021272;28;20190;-84
2023/07/31 09:41:47;;;;;;;4.72;2.97;;;;;;;23.69;42.66;95449.50;5029800;28;20704;-85
2023/07/31 09:44:12;;;;;;;6.93;3.00;;;;;;;23.18;43.28;95445.66;5017943;28;20225;-85
2023/07/31 09:46:38;;;;;;;6.40;2.65;;;;;;;22.36;44.10;95439.31;5003853;28;20215;-86
2023/07/31 09:49:11;;;;;;;5.35;2.67;;;;;;;21.75;45.78;95441.00;5015220;28;20187;-85
2023/07/31 09:51:41;;;;;;;6.15;2.80;;;;;;;21.85;45.19;95444.97;5008240;28;20504;-84
2023/07/31 09:54:16;;;;;;;6.30;2.40;;;;;;;22.04;45.92;95438.63;4996534;28;20263;-84
2023/07/31 09:56:44;;;;;;;7.70;2.85;;;;;;;22.12;45.15;95445.50;5007870;28;20306;-85
2023/07/31 09:59:11;;;;;;;4.80;2.78;;;;;;;21.82;45.19;95440.09;5007366;28;20640;-83
2023/07/31 10:01:38;;;;;;;6.30;2.95;;;;;;;21.99;44.98;95441.94;5016795;28;20227;-83
2023/07/31 10:04:04;;;;;;;6.28;2.70;;;;;;;22.55;43.94;95442.72;5036126;28;20194;-84
2023/07/31 10:06:30;;;;;;;4.45;2.63;;;;;;;23.09;43.23;95443.56;5023146;28;20545;-85
2023/07/31 10:08:56;;;;;;;4.97;2.92;;;;;;;23.00;43.57;95450.22;5020297;28;20186;-85
2023/07/31 10:11:23;;;;;;;5.90;3.05;;;;;;;23.65;42.74;95442.25;5022762;28;20655;-85
2023/07/31 10:13:49;;;;;;;4.13;2.83;;;;;;;23.88;42.34;95439.56;5013080;28;20182;-85
2023/07/31 10:16:16;;;;;;;6.28;2.90;;;;;;;22.44;44.70;95431.06;5024691;28;20203;-84
2023/07/31 10:18:43;;;;;;;7.78;3.03;;;;;;;22.78;44.12;95434.03;5003245;28;20187;-85
2023/07/31 10:21:08;;;;;;;4.30;2.60;;;;;;;23.24;42.58;95437.84;5023265;28;20277;-85
2023/07/31 10:23:34;;;;;;;5.78;2.70;;;;;;;23.28;42.94;95431.84;5009280;28;20200;-84
2023/07/31 10:26:00;;;;;;;4.22;2.55;;;;;;;23.79;42.22;95419.75;5006326;28;20717;-84
2023/07/31 10:28:26;;;;;;;5.43;2.85;;;;;;;23.83;43.68;95426.19;5021370;28;20250;-84
2023/07/31 10:30:51;;;;;;;6.03;2.80;;;;;;;23.66;42.02;95420.78;5009670;28;20187;-84
2023/07/31 10:33:17;;;;;;;7.35;3.30;;;;;;;23.04;43.48;95411.66;5004018;28;20246;-84
2023/07/31 10:35:43;;;;;;;4.63;2.90;;;;;;;23.49;42.59;95427.00;5015560;28;20687;-84
2023/07/31 10:38:12;;;;;;;6.68;3.10;;;;;;;22.66;42.48;95426.06;5017046;28;20229;-84
2023/07/31 10:40:38;;;;;;;6.30;3.08;;;;;;;22.81;43.27;95433.59;5015089;28;20186;-81
2023/07/31 10:43:05;;;;;;;6.68;2.95;;;;;;;23.16;42.93;95431.03;5030596;28;20183;-82
2023/07/31 10:45:32;;;;;;;4.72;2.67;;;;;;;23.14;43.01;95435.72;5003122;28;20595;-81
2023/07/31 10:48:00;;;;;;;7.97;4.00;;;;;;;23.81;42.16;95435.44;4999878;28;20221;-82
2023/07/31 10:50:26;;;;;;;6.13;3.00;;;;;;;24.21;41.82;95430.97;5036845;28;20225;-83
2023/07/31 10:52:55;;;;;;;7.35;3.03;;;;;;;23.83;41.57;95425.38;5009735;28;20190;-84
2023/07/31 10:55:21;;;;;;;5.93;2.88;;;;;;;24.55;41.03;95433.75;5024279;28;20202;-84
2023/07/31 10:57:47;;;;;;;6.28;3.15;;;;;;;23.91;41.43;95439.09;5021542;28;20248;-84
2023/07/31 11:00:20;;;;;;;6.50;2.92;;;;;;;23.01;42.88;95433.31;5015732;28;20246;-84
2023/07/31 11:03:10;;;;;;;7.60;2.95;;;;;;;23.51;42.42;95430.25;5016466;28;20190;-83
2023/07/31 11:06:03;;;;;;;5.78;3.15;;;;;;;23.32;43.74;95434.81;5001457;28;20218;-83
2023/07/31 11:08:31;;;;;;;5.65;2.95;;;;;;;23.11;43.54;95439.66;5021946;28;20289;-83
2023/07/31 11:11:02;;;;;;;6.13;3.10;;;;;;;23.63;42.87;95446.97;5019647;28;20254;-84
2023/07/31 11:13:28;;;;;;;6.15;3.00;;;;;;;24.22;41.97;95434.44;5027268;28;20198;-82
2023/07/31 11:15:53;;;;;;;4.47;2.70;;;;;;;23.79;41.92;95433.00;5020782;28;20639;-81
2023/07/31 11:18:19;;;;;;;5.78;2.75;;;;;;;24.26;41.86;95425.75;5018335;28;20182;-84
2023/07/31 11:20:44;;;;;;;4.85;2.58;;;;;;;23.94;42.09;95419.25;4999506;28;20290;-84
2023/07/31 11:23:10;;;;;;;5.45;3.00;;;;;;;23.49;42.81;95414.56;5016911;28;20179;-84
2023/07/31 11:25:36;;;;;;;4.88;2.85;;;;;;;23.84;43.21;95411.88;5019018;28;20203;-83
2023/07/31 11:28:06;;;;;;;6.40;2.90;;;;;;;23.39;43.93;95407.19;5018820;28;20270;-84
2023/07/31 11:30:32;;;;;;;5.95;2.60;;;;;;;23.59;43.54;95414.84;5026290;28;20205;-84